createdAt,value
2018-07-06T00:01:45.368Z,7.47
2018-07-06T00:06:59.982Z,4.70
2018-07-06T00:12:14.536Z,4.87
2018-07-06T00:17:29.243Z,3.63
2018-07-06T00:22:43.784Z,7.23
2018-07-06T00:27:58.623Z,5.43
2018-07-06T00:33:13.311Z,3.10
2018-07-06T00:38:27.776Z,3.10
2018-07-06T00:43:42.517Z,2.80
2018-07-06T00:48:57.282Z,3.90
2018-07-06T00:54:05.813Z,8.53
2018-07-06T00:59:20.391Z,4.00
2018-07-06T01:04:34.937Z,2.80
2018-07-06T01:09:49.576Z,5.83
2018-07-06T01:15:09.657Z,2.60
2018-07-06T01:20:24.512Z,2.87
2018-07-06T01:25:39.152Z,2.53
2018-07-06T01:30:53.823Z,3.40
2018-07-06T01:36:08.456Z,4.30
2018-07-06T01:41:23.239Z,3.37
2018-07-06T01:46:37.935Z,3.83
2018-07-06T01:51:53.199Z,2.73
2018-07-06T01:57:07.786Z,3.87
2018-07-06T02:02:22.741Z,3.47
2018-07-06T02:07:37.463Z,3.70
2018-07-06T02:12:52.255Z,4.83
2018-07-06T02:18:07.142Z,3.40
2018-07-06T02:23:21.854Z,2.53
2018-07-06T02:28:36.457Z,2.53
2018-07-06T02:33:51.084Z,4.30
2018-07-06T02:39:05.857Z,2.93
2018-07-06T02:44:20.478Z,3.47
2018-07-06T02:49:35.108Z,3.17
2018-07-06T02:54:49.920Z,2.13
2018-07-06T03:00:04.669Z,2.87
2018-07-06T03:05:19.279Z,3.17
2018-07-06T03:10:33.689Z,2.83
2018-07-06T03:15:48.091Z,3.30
2018-07-06T03:21:02.933Z,3.03
2018-07-06T03:26:17.885Z,2.97
2018-07-06T03:31:32.643Z,2.27
2018-07-06T03:36:47.213Z,3.30
2018-07-06T03:42:01.847Z,3.03
2018-07-06T03:47:16.835Z,2.47
2018-07-06T03:52:31.602Z,3.10
2018-07-06T03:57:46.177Z,5.00
2018-07-06T04:03:00.889Z,2.10
2018-07-06T04:08:15.976Z,2.20
2018-07-06T04:13:31.169Z,2.20
2018-07-06T04:18:45.658Z,1.80
2018-07-06T04:24:00.192Z,1.80
2018-07-06T04:29:16.178Z,1.97
2018-07-06T04:34:30.827Z,1.90
2018-07-06T04:39:45.419Z,3.13
2018-07-06T04:45:00.112Z,2.23
2018-07-06T04:50:14.786Z,3.50
2018-07-06T04:55:23.267Z,5.10
2018-07-06T05:00:37.846Z,3.63
2018-07-06T05:05:52.653Z,2.33
2018-07-06T05:11:07.353Z,5.00
2018-07-06T05:16:21.851Z,2.80
2018-07-06T05:21:36.894Z,4.10
2018-07-06T05:26:52.213Z,3.67
2018-07-06T05:32:07.000Z,3.57
2018-07-06T05:37:21.654Z,2.13
2018-07-06T05:42:36.602Z,2.07
2018-07-06T05:47:52.511Z,2.67
2018-07-06T05:53:06.999Z,4.03
2018-07-06T05:58:21.554Z,5.40
2018-07-06T06:03:36.299Z,2.70
2018-07-06T06:08:38.555Z,3.93
2018-07-06T06:13:43.376Z,2.90
2018-07-06T06:18:46.872Z,3.00
2018-07-06T06:23:49.994Z,3.20
2018-07-06T06:28:53.603Z,3.03
2018-07-06T06:33:58.931Z,3.23
2018-07-06T06:39:02.354Z,4.30
2018-07-06T06:44:07.060Z,4.13
2018-07-06T06:49:10.380Z,4.30
2018-07-06T06:54:14.680Z,6.07
2018-07-06T06:59:18.309Z,3.33
2018-07-06T07:04:22.085Z,3.43
2018-07-06T07:09:25.606Z,4.83
2018-07-06T07:14:29.749Z,4.50
2018-07-06T07:19:34.181Z,4.23
2018-07-06T07:24:37.937Z,3.53
2018-07-06T07:29:42.031Z,4.90
2018-07-06T07:34:46.628Z,4.43
2018-07-06T07:39:50.154Z,4.57
2018-07-06T07:44:53.403Z,2.53
2018-07-06T07:49:56.590Z,3.43
2018-07-06T07:55:00.201Z,4.73
2018-07-06T08:00:03.462Z,5.33
2018-07-06T08:05:06.741Z,4.50
2018-07-06T08:10:10.116Z,3.97
2018-07-06T08:15:13.325Z,3.40
2018-07-06T08:20:17.960Z,4.80
2018-07-06T08:25:21.217Z,4.70
2018-07-06T08:30:24.494Z,4.13
2018-07-06T08:35:39.090Z,2.87
2018-07-06T08:40:42.304Z,7.37
2018-07-06T08:45:45.694Z,3.43
2018-07-06T08:50:49.088Z,3.27
2018-07-06T08:55:52.349Z,4.57
2018-07-06T09:00:55.837Z,4.03
2018-07-06T09:05:59.054Z,2.93
2018-07-06T09:11:02.463Z,6.53
2018-07-06T09:16:05.858Z,3.37
2018-07-06T09:21:10.086Z,5.60
2018-07-06T09:26:13.812Z,3.87
2018-07-06T09:31:16.572Z,3.13
2018-07-06T09:36:19.866Z,10.27
2018-07-06T09:41:23.065Z,5.33
2018-07-06T09:46:26.589Z,5.20
2018-07-06T09:51:31.056Z,4.87
2018-07-06T09:56:34.281Z,12.07
2018-07-06T10:01:37.545Z,2.60
2018-07-06T10:06:40.844Z,6.43
2018-07-06T10:11:44.176Z,6.70
2018-07-06T10:16:47.718Z,7.67
2018-07-06T10:21:51.101Z,9.07
2018-07-06T10:26:54.254Z,3.70
2018-07-06T10:32:08.917Z,5.37
2018-07-06T10:37:12.139Z,7.20
2018-07-06T10:42:15.370Z,6.20
2018-07-06T10:47:18.657Z,8.40
2018-07-06T10:52:21.987Z,6.93
2018-07-06T10:57:25.345Z,10.13
2018-07-06T11:02:28.542Z,8.10
2018-07-06T11:07:31.966Z,6.10
2018-07-06T11:12:36.754Z,7.47
2018-07-06T11:17:40.127Z,7.63
2018-07-06T11:22:43.609Z,7.73
2018-07-06T11:27:46.815Z,4.90
2018-07-06T11:32:50.052Z,5.20
2018-07-06T11:37:53.327Z,4.50
2018-07-06T11:42:56.631Z,13.43
2018-07-06T11:47:59.966Z,5.40
2018-07-06T11:53:03.176Z,5.67
2018-07-06T11:58:06.457Z,4.30
2018-07-06T12:03:09.743Z,4.43
2018-07-06T12:08:12.995Z,6.73
2018-07-06T12:13:17.805Z,4.37
2018-07-06T12:18:21.036Z,4.00
2018-07-06T12:23:24.266Z,6.23
2018-07-06T12:28:27.460Z,3.97
2018-07-06T12:33:30.718Z,6.17
2018-07-06T12:38:34.618Z,3.90
2018-07-06T12:43:37.905Z,7.80
2018-07-06T12:48:42.609Z,8.07
2018-07-06T12:53:45.818Z,6.53
2018-07-06T12:58:49.288Z,5.47
2018-07-06T13:03:52.361Z,9.80
2018-07-06T13:08:55.618Z,3.93
2018-07-06T13:13:59.666Z,7.20
2018-07-06T13:19:02.977Z,7.60
2018-07-06T13:24:06.760Z,7.57
2018-07-06T13:29:10.557Z,7.73
2018-07-06T13:34:13.826Z,4.63
2018-07-06T13:39:17.451Z,6.53
2018-07-06T13:44:21.712Z,4.10
2018-07-06T13:49:25.233Z,3.90
2018-07-06T13:54:28.440Z,5.30
2018-07-06T13:59:31.850Z,4.40
2018-07-06T14:04:35.223Z,5.37
2018-07-06T14:09:38.596Z,4.70
2018-07-06T14:14:41.861Z,12.17
2018-07-06T14:19:45.128Z,4.70
2018-07-06T14:24:48.670Z,6.10
2018-07-06T14:29:52.386Z,6.50
2018-07-06T14:34:55.663Z,5.43
2018-07-06T14:39:58.871Z,3.07
2018-07-06T14:45:02.192Z,6.97
2018-07-06T14:50:06.891Z,3.80
2018-07-06T14:55:10.103Z,3.37
2018-07-06T15:00:13.307Z,6.57
2018-07-06T15:05:16.581Z,4.83
2018-07-06T15:10:19.844Z,7.73
2018-07-06T15:15:23.247Z,4.23
2018-07-06T15:20:26.496Z,3.80
2018-07-06T15:25:29.714Z,4.90
2018-07-06T15:30:33.123Z,3.30
2018-07-06T15:35:36.326Z,5.43
2018-07-06T15:40:39.614Z,4.23
2018-07-06T15:45:43.194Z,5.10
2018-07-06T15:50:46.725Z,9.53
2018-07-06T15:55:50.264Z,4.40
2018-07-06T16:00:53.469Z,3.77
2018-07-06T16:05:56.746Z,4.80
2018-07-06T16:11:00.230Z,3.80
2018-07-06T16:16:03.490Z,4.37
2018-07-06T16:21:06.895Z,3.97
2018-07-06T16:26:10.985Z,3.00
2018-07-06T16:31:14.302Z,6.13
2018-07-06T16:36:17.651Z,2.60
2018-07-06T16:41:21.602Z,4.43
2018-07-06T16:46:24.966Z,8.67
2018-07-06T16:51:28.185Z,4.50
2018-07-06T16:56:31.557Z,6.50
2018-07-06T17:01:34.821Z,4.53
2018-07-06T17:06:38.061Z,4.80
2018-07-06T17:11:41.298Z,4.57
2018-07-06T17:16:44.579Z,5.00
2018-07-06T17:21:48.302Z,6.10
2018-07-06T17:26:51.568Z,4.07
2018-07-06T17:31:55.021Z,6.90
2018-07-06T17:36:58.338Z,7.40
2018-07-06T17:42:01.955Z,9.50
2018-07-06T17:47:05.647Z,8.10
2018-07-06T17:52:08.897Z,8.70
2018-07-06T17:57:12.158Z,6.93
2018-07-06T18:02:15.446Z,6.40
2018-07-06T18:07:18.843Z,6.53
2018-07-06T18:12:22.154Z,7.30
2018-07-06T18:17:25.736Z,7.40
2018-07-06T18:22:29.543Z,5.63
2018-07-06T18:27:33.123Z,8.33
2018-07-06T18:32:36.426Z,7.50
2018-07-06T18:37:39.712Z,5.87
2018-07-06T18:42:42.718Z,5.30
2018-07-06T18:47:45.972Z,12.63
2018-07-06T18:52:49.308Z,10.73
2018-07-06T18:57:52.616Z,7.70
2018-07-06T19:02:56.200Z,8.87
2018-07-06T19:08:00.012Z,10.80
2018-07-06T19:13:03.382Z,12.43
2018-07-06T19:18:06.847Z,11.20
2018-07-06T19:23:10.493Z,7.53
2018-07-06T19:28:13.787Z,7.17
2018-07-06T19:33:17.039Z,8.20
2018-07-06T19:38:20.404Z,11.33
2018-07-06T19:43:23.666Z,9.30
2018-07-06T19:48:27.038Z,7.93
2018-07-06T19:53:30.257Z,8.00
2018-07-06T19:58:33.547Z,13.30
2018-07-06T20:03:36.942Z,14.30
2018-07-06T20:08:40.410Z,13.17
2018-07-06T20:13:43.653Z,16.47
2018-07-06T20:18:46.869Z,11.53
2018-07-06T20:23:50.159Z,15.67
2018-07-06T20:28:53.386Z,13.50
2018-07-06T20:33:56.600Z,9.30
2018-07-06T20:39:00.181Z,14.33
2018-07-06T20:44:03.490Z,12.23
2018-07-06T20:49:06.739Z,13.87
2018-07-06T20:54:09.999Z,11.57
2018-07-06T20:59:13.260Z,17.27
2018-07-06T21:04:16.488Z,10.10
2018-07-06T21:09:20.243Z,11.40
2018-07-06T21:14:23.849Z,10.70
2018-07-06T21:19:27.192Z,8.27
2018-07-06T21:24:30.479Z,10.13
2018-07-06T21:29:33.666Z,7.07
2018-07-06T21:34:37.081Z,6.60
2018-07-06T21:39:40.923Z,10.83
2018-07-06T21:44:44.193Z,8.03
2018-07-06T21:49:47.986Z,9.03
2018-07-06T21:54:51.676Z,7.93
2018-07-06T21:59:55.244Z,9.30
2018-07-06T22:04:58.540Z,7.87
2018-07-06T22:10:02.809Z,11.00
2018-07-06T22:15:06.057Z,8.17
2018-07-06T22:20:09.549Z,10.37
2018-07-06T22:25:12.781Z,10.40
2018-07-06T22:30:16.013Z,13.07
2018-07-06T22:35:19.403Z,16.33
2018-07-06T22:40:22.633Z,12.67
2018-07-06T22:45:26.387Z,7.47
2018-07-06T22:50:29.787Z,8.83
2018-07-06T22:55:33.116Z,8.93
2018-07-06T23:00:36.406Z,9.40
2018-07-06T23:05:39.795Z,8.40
2018-07-06T23:10:43.119Z,9.00
2018-07-06T23:15:46.929Z,12.90
2018-07-06T23:20:50.313Z,7.07
2018-07-06T23:25:53.557Z,7.63
2018-07-06T23:30:56.839Z,11.33
2018-07-06T23:36:00.110Z,6.53
2018-07-06T23:41:03.297Z,7.70
2018-07-06T23:46:06.810Z,8.70
2018-07-06T23:51:10.063Z,15.17
2018-07-06T23:56:13.654Z,9.43
